Flight Track Log - Related Links

Times and Time Zones

All times are in EDT time to prevent confusion due to time zone crossing. See the UAL4274 flight status page for this flight to view local times or setup timezone preferences in your user account.


Time Position Orientation Groundspeed Altitude Reporting Facility
EDT Latitude Longitude Course Direction KTS MPH feet Rate Location/Type
Tue 06:39:10 AM 37.5333 -77.3500 307° West 185 213 2,600  Level Potomac TRACON
Tue 06:40:45 AM 37.5978 -77.4528 308° West 239 275 7,300 3,019 Climbing Washington Center
Tue 06:41:45 AM 37.6403 -77.5272 306° West 255 293 10,400 2,400 Climbing Washington Center
Tue 06:42:45 AM 37.6953 -77.6153 308° West 287 330 12,100 1,950 Climbing Washington Center
Tue 06:43:45 AM 37.7542 -77.7139 307° West 324 373 14,300 2,200 Climbing Washington Center
Tue 06:44:00 AM 37.7731 -77.7551 307° West  Level FlightAware Approximate
Tue 06:44:45 AM 37.8128 -77.8128 307° West 346 398 16,500  Level Washington Center
Tue 06:45:45 AM 37.8733 -77.9147 307° West 360 414 18,400 2,000 Climbing Washington Center
Tue 06:46:45 AM 37.9339 -78.0192 306° West 365 420 20,500 2,100 Climbing Washington Center
Tue 06:47:45 AM 37.9986 -78.1214 309° West 370 426 22,600 2,100 Climbing Washington Center
Tue 06:48:45 AM 38.0997 -78.1672 340° North 370 426 24,700 2,000 Climbing Washington Center
Tue 06:49:45 AM 38.2122 -78.1708 359° North 368 423 26,600 1,150 Climbing Washington Center
Tue 06:50:45 AM 38.3269 -78.1775 357° North 386 444 27,000 200 Climbing Washington Center
Tue 06:51:45 AM 38.4497 -78.1844 357° North 416 479 27,000  Level Washington Center
Tue 06:52:45 AM 38.5808 -78.1917 358° North 441 507 27,000  Level Washington Center
Tue 06:53:45 AM 38.7100 -78.1989 358° North 457 526 27,000  Level Washington Center
Tue 06:54:45 AM 38.8433 -78.2064 357° North 463 533 27,000  Level Washington Center
Tue 06:55:45 AM 38.9744 -78.2189 356° North 468 539 27,000  Level Washington Center
Tue 06:56:45 AM 39.1075 -78.2344 355° North 473 544 27,000  Level Washington Center
Tue 06:57:45 AM 39.2364 -78.2444 357° North 473 544 27,000  Level Washington Center
Tue 06:59:26 AM 39.4600 -78.2656 356° North 472 543 27,000  Level Cleveland Center
Tue 07:00:26 AM 39.5894 -78.2825 354° North 472 543 27,000  Level Cleveland Center
Tue 07:01:26 AM 39.7189 -78.2944 356° North 461 531 27,000  Level Cleveland Center
Tue 07:02:26 AM 39.8406 -78.3281 348° North 461 531 27,000  Level Cleveland Center
Tue 07:03:26 AM 39.9406 -78.4278 323° Northwest 438 504 27,000  Level Cleveland Center
Tue 07:04:26 AM 40.0403 -78.5331 321° Northwest 445 512 27,000  Level Cleveland Center
Tue 07:05:26 AM 40.1361 -78.6386 320° Northwest 450 518 27,000  Level Cleveland Center
Tue 07:06:26 AM 40.2317 -78.7447 320° Northwest 450 518 27,000  Level Cleveland Center
Tue 07:07:26 AM 40.3231 -78.8539 318° Northwest 450 518 27,000  Level Cleveland Center
Tue 07:08:26 AM 40.4000 -78.9828 308° West 445 512 27,000  Level Cleveland Center
Tue 07:09:26 AM 40.4747 -79.1147 307° West 445 512 27,000  Level Cleveland Center
Tue 07:10:26 AM 40.5472 -79.2469 306° West 450 518 27,000  Level Cleveland Center
Tue 07:11:26 AM 40.6236 -79.3739 308° West 450 518 27,000  Level Cleveland Center
Tue 07:12:26 AM 40.6936 -79.5069 305° West 445 512 27,000  Level Cleveland Center
Tue 07:13:26 AM 40.7678 -79.6372 307° West 450 518 27,000 -50 Level Cleveland Center
Tue 07:14:26 AM 40.8397 -79.7653 307° West 444 511 26,900 -550 Descending Cleveland Center
Tue 07:15:26 AM 40.9094 -79.8964 305° West 444 511 25,900 -950 Descending Cleveland Center
Tue 07:16:26 AM 40.9769 -80.0275 304° West 444 511 25,000 -900 Descending Cleveland Center
Tue 07:17:26 AM 41.0400 -80.1592 302° West 439 505 24,100 -850 Descending Cleveland Center
Tue 07:18:26 AM 41.1028 -80.2939 302° West 434 499 23,300 -900 Descending Cleveland Center
Tue 07:19:26 AM 41.1636 -80.4175 303° West 417 480 22,300 -1,350 Descending Cleveland Center
Tue 07:20:26 AM 41.2242 -80.5417 303° West 406 467 20,600 -1,950 Descending Cleveland Center
Tue 07:21:26 AM 41.2761 -80.6578 301° West 385 443 18,400 -2,100 Descending Cleveland Center
Tue 07:22:26 AM 41.3283 -80.7656 303° West 361 415 16,400 -2,000 Descending Cleveland Center
Tue 07:23:26 AM 41.3822 -80.8819 302° West 344 396 14,400 -1,900 Descending Cleveland Center
Tue 07:24:26 AM 41.4319 -80.9847 303° West 338 389 12,600 -1,636 Descending Cleveland Center
Tue 07:24:43 AM 41.4442 -81.0125 300° West 313 360 12,300 -1,000 Descending Cleveland Center
Tue 07:25:08 AM 41.4586 -81.0458 300° West 291 335 11,900 -1,256 Descending Cleveland Center
Tue 07:25:26 AM 41.4733 -81.0736 305° West 322 371 11,400 -1,556 Descending Cleveland Center
Tue 07:26:02 AM 41.5000 -81.1294 303° West 278 320 10,500 -1,400 Descending Cleveland Center
Tue 07:26:26 AM 41.5103 -81.1683 289° West 295 339 10,000 -689 Descending Cleveland Center
Tue 07:27:03 AM 41.5078 -81.2319 267° West 284 327 9,800 -500 Descending Cleveland Center
Tue 07:27:26 AM 41.5117 -81.2708 278° West 281 323 9,500 -800 Descending Cleveland Center
Tue 07:28:03 AM 41.5136 -81.3347 272° West 271 312 9,000 -1,000 Descending Cleveland Center
Tue 07:28:26 AM 41.5153 -81.3733 273° West 281 323 8,500 -1,377 Descending Cleveland Center
Tue 07:29:04 AM 41.5147 -81.4400 269° West 274 315 7,600 -1,300 Descending Cleveland Center
Tue 07:29:26 AM 41.5167 -81.4733 274° West 276 318 7,200 -1,254 Descending Cleveland Center
Tue 07:30:11 AM 41.5181 -81.5453 272° West 258 297 6,200 -1,300 Descending Cleveland Center
Tue 07:30:26 AM 41.5181 -81.5675 270° West 260 299 5,900 -1,111 Descending Cleveland Center
Tue 07:31:05 AM 41.5194 -81.6286 272° West 239 275 5,200 -1,000 Descending Cleveland Center
Tue 07:31:26 AM 41.5172 -81.6536 263° West 246 283 4,900 -689 Descending Cleveland Center
Tue 07:32:06 AM 41.5064 -81.7033 254° West 189 217 4,500 -800 Descending Cleveland Center
Tue 07:32:26 AM 41.4978 -81.7197 235° Southwest 213 245 4,100 -1,364 Descending Cleveland Center
Tue 07:33:12 AM 41.4744 -81.7525 226° Southwest 164 189 3,000 -1,248 Descending Cleveland Center
Tue 07:34:07 AM 41.4492 -81.7908 229° Southwest 140 161 2,000 -1,135 Descending Cleveland Center
Tue 07:34:26 AM 41.4406 -81.7992 216° Southwest 149 171 1,600 -885 Descending Cleveland Center
Tue 07:35:08 AM 41.4236 -81.8292 233° Southwest 153 176 1,100 -714 Descending Cleveland Center
Tue 07:37:00 AM 41.4000 -81.8500 252° West  Level FlightAware Approximate

Login

Don't have an account? Register now (free) for customized features, flight alerts, and more!